sensor_id;sensor_type;location;lat;lon;timestamp;pressure;altitude;pressure_sealevel;temperature;humidity
49723;BME280;43484;43.608;1.458;2023-06-14T00:00:44;98705.53;;;19.69;100.00
49723;BME280;43484;43.608;1.458;2023-06-14T00:03:11;98708.13;;;19.69;100.00
49723;BME280;43484;43.608;1.458;2023-06-14T00:05:39;98710.41;;;19.81;100.00
49723;BME280;43484;43.608;1.458;2023-06-14T00:08:09;98709.66;;;19.77;100.00
49723;BME280;43484;43.608;1.458;2023-06-14T00:10:37;98709.56;;;19.80;100.00
49723;BME280;43484;43.608;1.458;2023-06-14T00:13:03;98707.88;;;19.78;100.00
49723;BME280;43484;43.608;1.458;2023-06-14T00:15:31;98721.56;;;19.51;100.00
49723;BME280;43484;43.608;1.458;2023-06-14T00:17:58;98717.50;;;19.39;100.00
49723;BME280;43484;43.608;1.458;2023-06-14T00:20:28;98702.47;;;19.53;100.00
49723;BME280;43484;43.608;1.458;2023-06-14T00:22:55;98695.44;;;19.90;100.00
49723;BME280;43484;43.608;1.458;2023-06-14T00:25:24;98706.06;;;19.48;100.00
49723;BME280;43484;43.608;1.458;2023-06-14T00:27:57;98699.59;;;19.64;100.00
49723;BME280;43484;43.608;1.458;2023-06-14T00:30:24;98702.09;;;19.33;100.00
49723;BME280;43484;43.608;1.458;2023-06-14T00:32:51;98694.72;;;19.85;100.00
49723;BME280;43484;43.608;1.458;2023-06-14T00:35:18;98699.47;;;20.02;100.00
49723;BME280;43484;43.608;1.458;2023-06-14T00:37:45;98719.38;;;20.03;100.00
49723;BME280;43484;43.608;1.458;2023-06-14T00:40:11;98709.69;;;20.08;100.00
49723;BME280;43484;43.608;1.458;2023-06-14T00:42:39;98693.69;;;19.91;100.00
49723;BME280;43484;43.608;1.458;2023-06-14T00:45:06;98699.00;;;19.53;100.00
49723;BME280;43484;43.608;1.458;2023-06-14T00:47:33;98699.59;;;19.64;100.00
49723;BME280;43484;43.608;1.458;2023-06-14T00:50:01;98693.63;;;19.60;100.00
49723;BME280;43484;43.608;1.458;2023-06-14T00:52:28;98695.56;;;19.52;100.00
49723;BME280;43484;43.608;1.458;2023-06-14T00:54:56;98690.00;;;19.66;100.00
49723;BME280;43484;43.608;1.458;2023-06-14T00:57:22;98693.13;;;19.80;100.00
49723;BME280;43484;43.608;1.458;2023-06-14T00:59:50;98685.69;;;19.98;100.00
49723;BME280;43484;43.608;1.458;2023-06-14T01:02:17;98684.59;;;20.07;100.00
49723;BME280;43484;43.608;1.458;2023-06-14T01:04:47;98690.69;;;20.06;100.00
49723;BME280;43484;43.608;1.458;2023-06-14T01:15:23;98694.19;;;20.05;100.00
49723;BME280;43484;43.608;1.458;2023-06-14T01:17:50;98702.25;;;19.61;100.00
49723;BME280;43484;43.608;1.458;2023-06-14T01:20:20;98687.75;;;19.54;100.00
49723;BME280;43484;43.608;1.458;2023-06-14T01:22:52;98682.81;;;20.09;100.00
49723;BME280;43484;43.608;1.458;2023-06-14T01:25:22;98677.72;;;20.37;100.00
49723;BME280;43484;43.608;1.458;2023-06-14T01:28:03;98685.91;;;20.23;100.00
49723;BME280;43484;43.608;1.458;2023-06-14T01:30:30;98673.03;;;20.49;100.00
49723;BME280;43484;43.608;1.458;2023-06-14T01:33:00;98680.50;;;20.31;100.00
49723;BME280;43484;43.608;1.458;2023-06-14T01:35:27;98682.41;;;19.58;100.00
49723;BME280;43484;43.608;1.458;2023-06-14T01:37:54;98692.03;;;19.55;100.00
49723;BME280;43484;43.608;1.458;2023-06-14T01:40:21;98688.59;;;19.53;100.00
49723;BME280;43484;43.608;1.458;2023-06-14T01:42:50;98678.19;;;19.54;100.00
49723;BME280;43484;43.608;1.458;2023-06-14T01:45:18;98679.53;;;20.01;100.00
49723;BME280;43484;43.608;1.458;2023-06-14T01:47:46;98683.13;;;19.97;100.00
49723;BME280;43484;43.608;1.458;2023-06-14T01:50:14;98689.09;;;19.68;100.00
49723;BME280;43484;43.608;1.458;2023-06-14T01:52:41;98678.25;;;19.85;100.00
49723;BME280;43484;43.608;1.458;2023-06-14T01:55:08;98685.31;;;19.80;100.00
49723;BME280;43484;43.608;1.458;2023-06-14T01:57:35;98690.88;;;19.66;100.00
49723;BME280;43484;43.608;1.458;2023-06-14T02:00:04;98684.41;;;19.81;100.00
49723;BME280;43484;43.608;1.458;2023-06-14T02:02:32;98685.16;;;19.86;100.00
49723;BME280;43484;43.608;1.458;2023-06-14T02:04:59;98691.72;;;19.67;100.00
49723;BME280;43484;43.608;1.458;2023-06-14T02:07:26;98687.50;;;19.63;100.00
49723;BME280;43484;43.608;1.458;2023-06-14T02:09:53;98690.34;;;19.86;100.00
49723;BME280;43484;43.608;1.458;2023-06-14T02:12:19;98682.50;;;19.89;100.00
49723;BME280;43484;43.608;1.458;2023-06-14T02:14:46;98692.00;;;19.56;100.00
49723;BME280;43484;43.608;1.458;2023-06-14T02:17:13;98689.53;;;19.85;100.00
49723;BME280;43484;43.608;1.458;2023-06-14T02:19:39;98687.00;;;19.81;100.00
49723;BME280;43484;43.608;1.458;2023-06-14T02:22:06;98685.09;;;19.55;100.00
49723;BME280;43484;43.608;1.458;2023-06-14T02:24:33;98682.06;;;19.72;100.00
49723;BME280;43484;43.608;1.458;2023-06-14T02:27:00;98681.16;;;19.39;100.00
49723;BME280;43484;43.608;1.458;2023-06-14T02:29:26;98682.75;;;19.45;100.00
49723;BME280;43484;43.608;1.458;2023-06-14T02:31:53;98676.53;;;19.52;100.00
49723;BME280;43484;43.608;1.458;2023-06-14T02:34:20;98666.88;;;19.57;100.00
49723;BME280;43484;43.608;1.458;2023-06-14T02:36:48;98665.53;;;19.74;100.00
49723;BME280;43484;43.608;1.458;2023-06-14T02:39:14;98670.34;;;19.57;100.00
49723;BME280;43484;43.608;1.458;2023-06-14T02:41:41;98670.47;;;19.51;100.00
49723;BME280;43484;43.608;1.458;2023-06-14T02:44:09;98675.00;;;19.43;100.00
49723;BME280;43484;43.608;1.458;2023-06-14T02:46:38;98677.25;;;19.57;100.00
49723;BME280;43484;43.608;1.458;2023-06-14T02:49:05;98665.69;;;19.68;100.00
49723;BME280;43484;43.608;1.458;2023-06-14T02:51:31;98676.47;;;19.53;100.00
49723;BME280;43484;43.608;1.458;2023-06-14T02:53:58;98676.78;;;19.41;100.00
49723;BME280;43484;43.608;1.458;2023-06-14T02:56:25;98681.97;;;19.41;100.00
49723;BME280;43484;43.608;1.458;2023-06-14T02:58:52;98681.84;;;19.47;100.00
49723;BME280;43484;43.608;1.458;2023-06-14T03:01:19;98678.19;;;19.54;100.00
49723;BME280;43484;43.608;1.458;2023-06-14T03:03:47;98682.84;;;19.42;100.00
49723;BME280;43484;43.608;1.458;2023-06-14T03:06:14;98686.91;;;19.52;100.00
49723;BME280;43484;43.608;1.458;2023-06-14T03:08:43;98690.66;;;19.40;100.00
49723;BME280;43484;43.608;1.458;2023-06-14T03:11:10;98686.06;;;19.51;100.00
49723;BME280;43484;43.608;1.458;2023-06-14T03:13:37;98689.56;;;19.50;100.00
49723;BME280;43484;43.608;1.458;2023-06-14T03:16:05;98696.59;;;19.45;100.00
49723;BME280;43484;43.608;1.458;2023-06-14T03:18:31;98708.19;;;19.32;100.00
49723;BME280;43484;43.608;1.458;2023-06-14T03:21:02;98704.84;;;19.24;100.00
49723;BME280;43484;43.608;1.458;2023-06-14T03:23:29;98702.09;;;19.33;100.00
49723;BME280;43484;43.608;1.458;2023-06-14T03:25:57;98707.16;;;19.38;100.00
49723;BME280;43484;43.608;1.458;2023-06-14T03:28:23;98706.50;;;19.30;100.00
49723;BME280;43484;43.608;1.458;2023-06-14T03:30:50;98715.84;;;19.37;100.00
49723;BME280;43484;43.608;1.458;2023-06-14T03:33:17;98722.00;;;19.33;100.00
49723;BME280;43484;43.608;1.458;2023-06-14T03:35:43;98718.53;;;19.34;100.00
49723;BME280;43484;43.608;1.458;2023-06-14T03:38:10;98712.28;;;19.41;100.00
49723;BME280;43484;43.608;1.458;2023-06-14T03:40:37;98727.31;;;19.27;100.00
49723;BME280;43484;43.608;1.458;2023-06-14T03:43:03;98717.72;;;19.32;100.00
49723;BME280;43484;43.608;1.458;2023-06-14T03:45:30;98717.25;;;19.50;100.00
49723;BME280;43484;43.608;1.458;2023-06-14T03:47:56;98736.88;;;19.25;100.00
49723;BME280;43484;43.608;1.458;2023-06-14T03:50:23;98749.84;;;19.25;100.00
49723;BME280;43484;43.608;1.458;2023-06-14T03:52:50;98748.13;;;19.25;100.00
49723;BME280;43484;43.608;1.458;2023-06-14T03:55:17;98749.94;;;19.22;100.00
49723;BME280;43484;43.608;1.458;2023-06-14T03:57:46;98753.50;;;19.16;100.00
49723;BME280;43484;43.608;1.458;2023-06-14T04:00:13;98751.00;;;19.13;100.00
49723;BME280;43484;43.608;1.458;2023-06-14T04:02:40;98750.16;;;19.11;100.00
49723;BME280;43484;43.608;1.458;2023-06-14T04:05:07;98741.03;;;19.33;100.00
49723;BME280;43484;43.608;1.458;2023-06-14T04:07:35;98741.13;;;19.30;100.00
49723;BME280;43484;43.608;1.458;2023-06-14T04:10:07;98745.72;;;19.16;100.00
49723;BME280;43484;43.608;1.458;2023-06-14T04:12:37;98745.34;;;19.34;100.00
49723;BME280;43484;43.608;1.458;2023-06-14T04:15:04;98754.94;;;19.31;100.00
49723;BME280;43484;43.608;1.458;2023-06-14T04:17:45;98759.72;;;19.49;100.00
49723;BME280;43484;43.608;1.458;2023-06-14T04:20:12;98750.66;;;19.30;100.00
49723;BME280;43484;43.608;1.458;2023-06-14T04:22:39;98757.56;;;19.29;100.00
49723;BME280;43484;43.608;1.458;2023-06-14T04:25:07;98767.69;;;19.41;100.00
49723;BME280;43484;43.608;1.458;2023-06-14T04:27:34;98763.56;;;19.33;100.00
49723;BME280;43484;43.608;1.458;2023-06-14T04:30:03;98772.50;;;19.58;100.00
49723;BME280;43484;43.608;1.458;2023-06-14T04:32:30;98768.69;;;19.71;100.00
49723;BME280;43484;43.608;1.458;2023-06-14T04:35:00;98778.97;;;19.40;100.00
49723;BME280;43484;43.608;1.458;2023-06-14T04:37:30;98772.44;;;19.59;100.00
49723;BME280;43484;43.608;1.458;2023-06-14T04:39:57;98778.25;;;19.70;100.00
49723;BME280;43484;43.608;1.458;2023-06-14T04:42:24;98784.97;;;19.44;100.00
49723;BME280;43484;43.608;1.458;2023-06-14T04:44:51;98781.22;;;19.16;100.00
49723;BME280;43484;43.608;1.458;2023-06-14T04:47:22;98768.03;;;19.63;100.00
49723;BME280;43484;43.608;1.458;2023-06-14T04:49:48;98765.69;;;19.54;100.00
49723;BME280;43484;43.608;1.458;2023-06-14T04:52:17;98776.50;;;19.34;100.00
49723;BME280;43484;43.608;1.458;2023-06-14T04:54:43;98766.28;;;19.27;100.00
49723;BME280;43484;43.608;1.458;2023-06-14T04:57:10;98769.81;;;19.62;100.00
49723;BME280;43484;43.608;1.458;2023-06-14T04:59:40;98774.25;;;19.56;100.00
49723;BME280;43484;43.608;1.458;2023-06-14T05:02:07;98774.69;;;19.74;100.00
49723;BME280;43484;43.608;1.458;2023-06-14T05:04:35;98780.94;;;19.67;100.00
49723;BME280;43484;43.608;1.458;2023-06-14T05:07:08;98774.59;;;19.79;100.00
49723;BME280;43484;43.608;1.458;2023-06-14T05:09:35;98784.66;;;19.57;100.00
49723;BME280;43484;43.608;1.458;2023-06-14T05:12:03;98784.38;;;19.68;100.00
49723;BME280;43484;43.608;1.458;2023-06-14T05:14:30;98786.34;;;19.58;100.00
49723;BME280;43484;43.608;1.458;2023-06-14T05:16:57;98791.25;;;19.70;100.00
49723;BME280;43484;43.608;1.458;2023-06-14T05:19:23;98789.25;;;19.81;100.00
49723;BME280;43484;43.608;1.458;2023-06-14T05:21:50;98796.91;;;19.51;100.00
49723;BME280;43484;43.608;1.458;2023-06-14T05:24:17;98799.94;;;19.69;100.00
49723;BME280;43484;43.608;1.458;2023-06-14T05:26:44;98797.38;;;19.68;100.00
49723;BME280;43484;43.608;1.458;2023-06-14T05:29:11;98806.66;;;19.78;100.00
49723;BME280;43484;43.608;1.458;2023-06-14T05:31:38;98807.13;;;19.58;100.00
49723;BME280;43484;43.608;1.458;2023-06-14T05:34:05;98799.44;;;19.90;100.00
49723;BME280;43484;43.608;1.458;2023-06-14T05:36:32;98811.94;;;19.75;100.00
49723;BME280;43484;43.608;1.458;2023-06-14T05:38:58;98808.47;;;19.74;100.00
49723;BME280;43484;43.608;1.458;2023-06-14T05:41:27;98821.97;;;19.90;100.00
49723;BME280;43484;43.608;1.458;2023-06-14T05:43:54;98818.47;;;19.91;100.00
49723;BME280;43484;43.608;1.458;2023-06-14T05:46:22;98816.06;;;19.83;100.00
49723;BME280;43484;43.608;1.458;2023-06-14T05:48:51;98827.00;;;19.98;100.00
49723;BME280;43484;43.608;1.458;2023-06-14T05:51:18;98833.06;;;19.96;100.00
49723;BME280;43484;43.608;1.458;2023-06-14T05:53:48;98834.06;;;19.91;100.00
49723;BME280;43484;43.608;1.458;2023-06-14T05:56:17;98841.72;;;19.97;100.00
49723;BME280;43484;43.608;1.458;2023-06-14T05:58:45;98836.94;;;19.80;100.00
49723;BME280;43484;43.608;1.458;2023-06-14T06:01:12;98843.69;;;19.87;100.00
49723;BME280;43484;43.608;1.458;2023-06-14T06:03:39;98847.78;;;19.98;100.00
49723;BME280;43484;43.608;1.458;2023-06-14T06:06:06;98849.81;;;19.85;100.00
49723;BME280;43484;43.608;1.458;2023-06-14T06:08:34;98868.34;;;19.70;100.00
49723;BME280;43484;43.608;1.458;2023-06-14T06:11:01;98844.28;;;19.62;100.00
49723;BME280;43484;43.608;1.458;2023-06-14T06:13:28;98846.34;;;19.84;100.00
49723;BME280;43484;43.608;1.458;2023-06-14T06:15:54;98855.69;;;19.93;100.00
49723;BME280;43484;43.608;1.458;2023-06-14T06:18:22;98853.03;;;19.94;100.00
49723;BME280;43484;43.608;1.458;2023-06-14T06:20:49;98861.16;;;20.19;100.00
49723;BME280;43484;43.608;1.458;2023-06-14T06:23:16;98871.94;;;20.03;100.00
49723;BME280;43484;43.608;1.458;2023-06-14T06:25:43;98877.53;;;19.84;100.00
49723;BME280;43484;43.608;1.458;2023-06-14T06:28:10;98871.94;;;20.01;100.00
49723;BME280;43484;43.608;1.458;2023-06-14T06:30:38;98872.69;;;20.08;100.00
49723;BME280;43484;43.608;1.458;2023-06-14T06:33:04;98868.19;;;20.14;100.00
49723;BME280;43484;43.608;1.458;2023-06-14T06:35:32;98877.56;;;20.21;100.00
49723;BME280;43484;43.608;1.458;2023-06-14T06:38:00;98885.75;;;20.40;100.00
49723;BME280;43484;43.608;1.458;2023-06-14T06:40:27;98895.00;;;20.18;100.00
49723;BME280;43484;43.608;1.458;2023-06-14T06:42:54;98897.44;;;20.24;100.00
49723;BME280;43484;43.608;1.458;2023-06-14T06:45:21;98896.19;;;20.02;100.00
49723;BME280;43484;43.608;1.458;2023-06-14T06:47:51;98890.53;;;19.84;100.00
49723;BME280;43484;43.608;1.458;2023-06-14T06:50:18;98890.34;;;19.93;100.00
49723;BME280;43484;43.608;1.458;2023-06-14T06:52:46;98888.19;;;20.11;100.00
49723;BME280;43484;43.608;1.458;2023-06-14T06:55:13;98888.19;;;20.11;100.00
49723;BME280;43484;43.608;1.458;2023-06-14T06:57:40;98903.09;;;20.04;100.00
49723;BME280;43484;43.608;1.458;2023-06-14T07:00:08;98906.50;;;20.06;100.00
49723;BME280;43484;43.608;1.458;2023-06-14T07:02:36;98911.47;;;20.17;100.00
49723;BME280;43484;43.608;1.458;2023-06-14T07:05:03;98907.09;;;20.19;100.00
49723;BME280;43484;43.608;1.458;2023-06-14T07:07:31;98916.56;;;20.21;100.00
49723;BME280;43484;43.608;1.458;2023-06-14T07:09:58;98919.59;;;20.02;100.00
49723;BME280;43484;43.608;1.458;2023-06-14T07:12:25;98918.34;;;20.21;100.00
49723;BME280;43484;43.608;1.458;2023-06-14T07:14:51;98914.19;;;20.11;100.00
49723;BME280;43484;43.608;1.458;2023-06-14T07:17:18;98922.78;;;20.14;100.00
49723;BME280;43484;43.608;1.458;2023-06-14T07:19:45;98921.06;;;20.13;100.00
49723;BME280;43484;43.608;1.458;2023-06-14T07:22:12;98927.91;;;20.19;100.00
49723;BME280;43484;43.608;1.458;2023-06-14T07:24:39;98938.84;;;20.33;100.00
49723;BME280;43484;43.608;1.458;2023-06-14T07:27:07;98936.47;;;20.24;100.00
49723;BME280;43484;43.608;1.458;2023-06-14T07:29:34;98937.38;;;20.21;100.00
49723;BME280;43484;43.608;1.458;2023-06-14T07:32:01;98935.50;;;20.26;100.00
49723;BME280;43484;43.608;1.458;2023-06-14T07:34:28;98944.25;;;20.24;100.00
49723;BME280;43484;43.608;1.458;2023-06-14T07:36:54;98940.06;;;20.53;100.00
49723;BME280;43484;43.608;1.458;2023-06-14T07:39:21;98951.78;;;20.36;100.00
49723;BME280;43484;43.608;1.458;2023-06-14T07:41:48;98953.84;;;20.22;100.00
49723;BME280;43484;43.608;1.458;2023-06-14T07:44:15;98952.22;;;20.18;100.00
49723;BME280;43484;43.608;1.458;2023-06-14T07:46:42;98954.13;;;20.45;100.00
49723;BME280;43484;43.608;1.458;2023-06-14T07:49:09;98968.69;;;20.53;100.00
49723;BME280;43484;43.608;1.458;2023-06-14T07:51:36;98979.72;;;20.28;100.00
49723;BME280;43484;43.608;1.458;2023-06-14T07:54:04;98986.53;;;20.68;100.00
49723;BME280;43484;43.608;1.458;2023-06-14T07:56:31;99003.28;;;20.57;100.00
49723;BME280;43484;43.608;1.458;2023-06-14T07:58:57;99011.13;;;20.55;100.00
49723;BME280;43484;43.608;1.458;2023-06-14T08:01:24;99015.34;;;20.61;100.00
49723;BME280;43484;43.608;1.458;2023-06-14T08:03:52;99026.56;;;20.64;100.00
49723;BME280;43484;43.608;1.458;2023-06-14T08:06:19;99032.25;;;20.78;100.00
49723;BME280;43484;43.608;1.458;2023-06-14T08:08:45;99039.28;;;20.75;100.00
49723;BME280;43484;43.608;1.458;2023-06-14T08:11:12;99053.22;;;20.74;100.00
49723;BME280;43484;43.608;1.458;2023-06-14T08:13:39;99057.38;;;20.81;100.00
49723;BME280;43484;43.608;1.458;2023-06-14T08:16:05;99076.56;;;20.77;100.00
49723;BME280;43484;43.608;1.458;2023-06-14T08:18:32;99074.94;;;21.09;100.00
49723;BME280;43484;43.608;1.458;2023-06-14T08:20:58;99092.63;;;21.31;100.00
49723;BME280;43484;43.608;1.458;2023-06-14T08:23:25;99116.69;;;21.40;100.00
49723;BME280;43484;43.608;1.458;2023-06-14T08:25:52;99133.19;;;21.41;100.00
49723;BME280;43484;43.608;1.458;2023-06-14T08:28:19;99138.81;;;21.58;100.00
49723;BME280;43484;43.608;1.458;2023-06-14T08:30:45;99162.47;;;21.50;100.00
49723;BME280;43484;43.608;1.458;2023-06-14T08:33:12;99164.97;;;21.55;100.00
49723;BME280;43484;43.608;1.458;2023-06-14T08:35:43;99163.16;;;21.23;100.00
49723;BME280;43484;43.608;1.458;2023-06-14T08:38:11;99153.94;;;21.44;100.00
49723;BME280;43484;43.608;1.458;2023-06-14T08:40:40;99171.81;;;21.59;100.00
49723;BME280;43484;43.608;1.458;2023-06-14T08:43:08;99196.78;;;21.67;100.00
49723;BME280;43484;43.608;1.458;2023-06-14T08:45:35;99186.13;;;21.43;100.00
49723;BME280;43484;43.608;1.458;2023-06-14T08:48:02;99190.84;;;21.62;100.00
49723;BME280;43484;43.608;1.458;2023-06-14T08:50:31;99212.72;;;21.92;100.00
49723;BME280;43484;43.608;1.458;2023-06-14T08:53:01;99233.81;;;21.83;100.00
49723;BME280;43484;43.608;1.458;2023-06-14T08:55:30;99248.09;;;22.02;100.00
49723;BME280;43484;43.608;1.458;2023-06-14T08:58:02;99282.88;;;22.01;100.00
49723;BME280;43484;43.608;1.458;2023-06-14T09:00:30;99299.09;;;22.13;100.00
49723;BME280;43484;43.608;1.458;2023-06-14T09:02:59;99316.19;;;22.25;100.00
49723;BME280;43484;43.608;1.458;2023-06-14T09:05:27;99326.06;;;22.12;100.00
49723;BME280;43484;43.608;1.458;2023-06-14T09:07:54;99324.13;;;22.20;100.00
49723;BME280;43484;43.608;1.458;2023-06-14T09:10:22;99342.84;;;22.02;100.00
49723;BME280;43484;43.608;1.458;2023-06-14T09:12:50;99322.44;;;22.18;100.00
49723;BME280;43484;43.608;1.458;2023-06-14T09:15:17;99333.94;;;22.11;100.00
49723;BME280;43484;43.608;1.458;2023-06-14T09:17:44;99330.16;;;22.22;100.00
49723;BME280;43484;43.608;1.458;2023-06-14T09:20:11;99327.94;;;22.41;100.00
49723;BME280;43484;43.608;1.458;2023-06-14T09:22:45;99359.66;;;22.60;100.00
49723;BME280;43484;43.608;1.458;2023-06-14T09:25:12;99383.25;;;22.57;100.00
49723;BME280;43484;43.608;1.458;2023-06-14T09:27:59;99394.22;;;22.69;100.00
49723;BME280;43484;43.608;1.458;2023-06-14T09:30:26;99404.66;;;22.34;100.00
49723;BME280;43484;43.608;1.458;2023-06-14T09:32:53;99418.66;;;22.31;100.00
49723;BME280;43484;43.608;1.458;2023-06-14T09:35:20;99409.81;;;22.38;100.00
49723;BME280;43484;43.608;1.458;2023-06-14T09:37:47;99420.66;;;22.57;100.00
49723;BME280;43484;43.608;1.458;2023-06-14T09:40:20;99416.53;;;22.47;100.00
49723;BME280;43484;43.608;1.458;2023-06-14T09:42:47;99418.06;;;22.89;100.00
49723;BME280;43484;43.608;1.458;2023-06-14T09:45:14;99415.22;;;22.29;100.00
49723;BME280;43484;43.608;1.458;2023-06-14T09:47:46;99412.50;;;22.34;100.00
49723;BME280;43484;43.608;1.458;2023-06-14T09:50:31;99419.06;;;22.50;100.00
49723;BME280;43484;43.608;1.458;2023-06-14T09:53:02;99427.38;;;22.67;100.00
49723;BME280;43484;43.608;1.458;2023-06-14T09:55:30;99437.25;;;22.88;100.00
49723;BME280;43484;43.608;1.458;2023-06-14T09:58:00;99448.22;;;23.01;100.00
49723;BME280;43484;43.608;1.458;2023-06-14T10:00:31;99467.97;;;23.11;100.00
49723;BME280;43484;43.608;1.458;2023-06-14T10:03:21;99479.00;;;22.90;100.00
49723;BME280;43484;43.608;1.458;2023-06-14T10:05:50;99474.84;;;23.15;100.00
49723;BME280;43484;43.608;1.458;2023-06-14T10:08:19;99482.50;;;23.53;100.00
49723;BME280;43484;43.608;1.458;2023-06-14T10:10:51;99486.94;;;23.51;100.00
49723;BME280;43484;43.608;1.458;2023-06-14T10:13:18;99489.34;;;23.58;100.00
49723;BME280;43484;43.608;1.458;2023-06-14T10:18:48;99497.53;;;23.46;100.00
49723;BME280;43484;43.608;1.458;2023-06-14T10:21:43;99487.63;;;23.87;100.00
49723;BME280;43484;43.608;1.458;2023-06-14T10:24:15;99518.19;;;23.55;100.00
49723;BME280;43484;43.608;1.458;2023-06-14T10:26:54;99526.19;;;23.51;100.00
49723;BME280;43484;43.608;1.458;2023-06-14T10:29:25;99522.66;;;23.83;100.00
49723;BME280;43484;43.608;1.458;2023-06-14T10:31:56;99515.97;;;23.73;100.00
49723;BME280;43484;43.608;1.458;2023-06-14T10:34:28;99517.22;;;23.89;100.00
49723;BME280;43484;43.608;1.458;2023-06-14T10:37:13;99516.44;;;24.16;100.00
49723;BME280;43484;43.608;1.458;2023-06-14T10:39:41;99517.47;;;23.80;100.00
49723;BME280;43484;43.608;1.458;2023-06-14T10:42:08;99530.03;;;23.69;100.00
49723;BME280;43484;43.608;1.458;2023-06-14T10:47:09;99521.22;;;24.02;100.00
49723;BME280;43484;43.608;1.458;2023-06-14T10:49:38;99522.84;;;24.06;100.00
49723;BME280;43484;43.608;1.458;2023-06-14T10:52:15;99525.41;;;24.36;100.00
49723;BME280;43484;43.608;1.458;2023-06-14T10:55:11;99521.44;;;24.51;100.00
49723;BME280;43484;43.608;1.458;2023-06-14T10:57:52;99529.56;;;24.42;100.00
49723;BME280;43484;43.608;1.458;2023-06-14T11:00:23;99528.75;;;24.40;100.00
49723;BME280;43484;43.608;1.458;2023-06-14T11:03:29;99536.13;;;24.55;100.00
49723;BME280;43484;43.608;1.458;2023-06-14T11:05:59;99534.00;;;24.40;100.00
49723;BME280;43484;43.608;1.458;2023-06-14T11:11:13;99548.50;;;24.50;100.00
49723;BME280;43484;43.608;1.458;2023-06-14T11:13:44;99535.13;;;24.59;100.00
49723;BME280;43484;43.608;1.458;2023-06-14T11:16:12;99531.19;;;24.73;100.00
49723;BME280;43484;43.608;1.458;2023-06-14T11:18:40;99537.88;;;24.56;100.00
49723;BME280;43484;43.608;1.458;2023-06-14T11:21:07;99543.75;;;24.35;100.00
49723;BME280;43484;43.608;1.458;2023-06-14T11:23:35;99536.28;;;24.50;100.00
49723;BME280;43484;43.608;1.458;2023-06-14T11:26:03;99528.38;;;24.80;100.00
49723;BME280;43484;43.608;1.458;2023-06-14T11:28:38;99537.66;;;24.90;100.00
49723;BME280;43484;43.608;1.458;2023-06-14T11:31:05;99539.38;;;25.15;100.00
49723;BME280;43484;43.608;1.458;2023-06-14T11:33:33;99547.53;;;24.82;100.00
49723;BME280;43484;43.608;1.458;2023-06-14T11:36:04;99535.66;;;24.70;100.00
49723;BME280;43484;43.608;1.458;2023-06-14T11:38:35;99540.50;;;24.82;100.00
49723;BME280;43484;43.608;1.458;2023-06-14T11:41:03;99533.50;;;25.09;100.00
49723;BME280;43484;43.608;1.458;2023-06-14T11:43:29;99550.44;;;25.25;100.00
49723;BME280;43484;43.608;1.458;2023-06-14T11:45:58;99544.97;;;25.31;100.00
49723;BME280;43484;43.608;1.458;2023-06-14T11:48:51;99544.69;;;25.40;100.00
49723;BME280;43484;43.608;1.458;2023-06-14T11:51:19;99552.97;;;25.02;100.00
49723;BME280;43484;43.608;1.458;2023-06-14T11:53:46;99552.34;;;25.20;100.00
49723;BME280;43484;43.608;1.458;2023-06-14T11:56:13;99536.66;;;25.44;100.00
49723;BME280;43484;43.608;1.458;2023-06-14T11:58:43;99540.97;;;25.45;100.00
49723;BME280;43484;43.608;1.458;2023-06-14T12:01:14;99543.81;;;25.39;100.00
49723;BME280;43484;43.608;1.458;2023-06-14T12:03:47;99541.78;;;25.47;100.00
49723;BME280;43484;43.608;1.458;2023-06-14T12:06:15;99543.06;;;25.36;100.00
49723;BME280;43484;43.608;1.458;2023-06-14T12:08:42;99532.91;;;25.51;100.00
49723;BME280;43484;43.608;1.458;2023-06-14T12:11:14;99526.84;;;25.49;100.00
49723;BME280;43484;43.608;1.458;2023-06-14T12:13:41;99544.81;;;25.37;100.00
49723;BME280;43484;43.608;1.458;2023-06-14T12:16:09;99535.78;;;25.68;100.00
49723;BME280;43484;43.608;1.458;2023-06-14T12:18:38;99538.47;;;25.67;100.00
49723;BME280;43484;43.608;1.458;2023-06-14T12:21:09;99538.28;;;25.94;100.00
49723;BME280;43484;43.608;1.458;2023-06-14T12:23:42;99543.09;;;25.83;100.00
49723;BME280;43484;43.608;1.458;2023-06-14T12:26:09;99549.19;;;25.84;100.00
49723;BME280;43484;43.608;1.458;2023-06-14T12:28:37;99543.78;;;25.88;100.00
49723;BME280;43484;43.608;1.458;2023-06-14T12:31:06;99540.03;;;25.95;100.00
49723;BME280;43484;43.608;1.458;2023-06-14T12:33:33;99541.22;;;25.87;100.00
49723;BME280;43484;43.608;1.458;2023-06-14T12:36:03;99541.16;;;25.88;100.00
49723;BME280;43484;43.608;1.458;2023-06-14T12:38:30;99540.16;;;25.91;100.00
49723;BME280;43484;43.608;1.458;2023-06-14T12:40:56;99539.56;;;26.08;100.00
49723;BME280;43484;43.608;1.458;2023-06-14T12:43:24;99536.72;;;25.66;100.00
49723;BME280;43484;43.608;1.458;2023-06-14T12:45:50;99533.97;;;25.93;100.00
49723;BME280;43484;43.608;1.458;2023-06-14T12:48:17;99537.41;;;26.19;100.00
49723;BME280;43484;43.608;1.458;2023-06-14T12:50:44;99539.50;;;26.09;100.00
49723;BME280;43484;43.608;1.458;2023-06-14T12:53:11;99525.75;;;26.26;100.00
49723;BME280;43484;43.608;1.458;2023-06-14T12:55:38;99549.25;;;26.29;100.00
49723;BME280;43484;43.608;1.458;2023-06-14T12:58:05;99540.59;;;26.04;100.00
49723;BME280;43484;43.608;1.458;2023-06-14T13:00:36;99532.63;;;26.28;100.00
49723;BME280;43484;43.608;1.458;2023-06-14T13:03:03;99526.97;;;26.39;100.00
49723;BME280;43484;43.608;1.458;2023-06-14T13:05:29;99535.59;;;26.42;100.00
49723;BME280;43484;43.608;1.458;2023-06-14T13:08:00;99534.91;;;26.59;100.00
49723;BME280;43484;43.608;1.458;2023-06-14T13:10:27;99537.63;;;26.36;100.00
49723;BME280;43484;43.608;1.458;2023-06-14T13:12:54;99528.59;;;26.20;100.00